Weather at Nenana Municipal Airport

Public forecast

Using degrees Fahrenheit for public forecast. Weather courtesy of forecast.io.

Current aviation weather report (METAR) for Nenana Municipal Airport

Retrieved 2021/10/16 22:06 UTC (1 hour ago):

PANN 162206Z AUTO 10006KT 10SM SCT026 OVC085 M01/M07 A2988

Closest aviation forecast (TAF) to Nenana Municipal Airport

Closest forecast is Fairbanks International Airport, 35.2 nm (65.1 km) ENE. Retrieved 2021/10/16 18:27 UTC (5 hours ago):

TAF PAFA 161722Z 1618/1724 VRB03KT 6SM -SN BR BKN009 BKN016 OVC035 FM162000 VRB03KT 6SM -SN BR SCT016 BKN025 OVC040 FM170000 VRB03KT P6SM FEW020 OVC050 FM170600 VRB03KT P6SM BKN100